sensor_id;sensor_type;location;lat;lon;timestamp;temperature;humidity
79024;DHT22;70306;44.764;37.688;2024-03-08T00:00:12;4.57;76.42
79024;DHT22;70306;44.764;37.688;2024-03-08T00:01:14;4.56;76.31
79024;DHT22;70306;44.764;37.688;2024-03-08T00:02:18;4.50;76.24
79024;DHT22;70306;44.764;37.688;2024-03-08T00:03:21;4.46;76.59
79024;DHT22;70306;44.764;37.688;2024-03-08T00:04:23;4.41;77.02
79024;DHT22;70306;44.764;37.688;2024-03-08T00:05:25;4.39;77.05
79024;DHT22;70306;44.764;37.688;2024-03-08T00:06:27;4.38;77.12
79024;DHT22;70306;44.764;37.688;2024-03-08T00:07:29;4.43;77.94
79024;DHT22;70306;44.764;37.688;2024-03-08T00:08:31;4.50;78.54
79024;DHT22;70306;44.764;37.688;2024-03-08T00:09:33;4.56;77.78
79024;DHT22;70306;44.764;37.688;2024-03-08T00:10:35;4.49;76.38
79024;DHT22;70306;44.764;37.688;2024-03-08T00:11:37;4.39;76.18
79024;DHT22;70306;44.764;37.688;2024-03-08T00:12:42;4.29;76.40
79024;DHT22;70306;44.764;37.688;2024-03-08T00:13:44;4.24;77.19
79024;DHT22;70306;44.764;37.688;2024-03-08T00:14:46;4.31;78.19
79024;DHT22;70306;44.764;37.688;2024-03-08T00:15:48;4.26;77.32
79024;DHT22;70306;44.764;37.688;2024-03-08T00:16:51;4.26;77.78
79024;DHT22;70306;44.764;37.688;2024-03-08T00:17:54;4.26;77.82
79024;DHT22;70306;44.764;37.688;2024-03-08T00:18:56;4.26;77.58
79024;DHT22;70306;44.764;37.688;2024-03-08T00:19:58;4.26;77.72
79024;DHT22;70306;44.764;37.688;2024-03-08T00:21:00;4.29;78.08
79024;DHT22;70306;44.764;37.688;2024-03-08T00:22:02;4.35;78.24
79024;DHT22;70306;44.764;37.688;2024-03-08T00:23:04;4.39;78.39
79024;DHT22;70306;44.764;37.688;2024-03-08T00:24:07;4.46;78.26
79024;DHT22;70306;44.764;37.688;2024-03-08T00:25:09;4.50;78.27
79024;DHT22;70306;44.764;37.688;2024-03-08T00:26:11;4.49;77.02
79024;DHT22;70306;44.764;37.688;2024-03-08T00:27:13;4.26;76.51
79024;DHT22;70306;44.764;37.688;2024-03-08T00:28:17;4.17;77.21
79024;DHT22;70306;44.764;37.688;2024-03-08T00:29:20;4.17;77.81
79024;DHT22;70306;44.764;37.688;2024-03-08T00:30:23;4.19;78.03
79024;DHT22;70306;44.764;37.688;2024-03-08T00:31:27;4.19;78.02
79024;DHT22;70306;44.764;37.688;2024-03-08T00:32:29;4.18;77.52
79024;DHT22;70306;44.764;37.688;2024-03-08T00:33:33;4.17;77.69
79024;DHT22;70306;44.764;37.688;2024-03-08T00:34:35;4.12;77.49
79024;DHT22;70306;44.764;37.688;2024-03-08T00:35:40;4.07;78.03
79024;DHT22;70306;44.764;37.688;2024-03-08T00:36:42;4.04;77.76
79024;DHT22;70306;44.764;37.688;2024-03-08T00:37:45;4.00;77.61
79024;DHT22;70306;44.764;37.688;2024-03-08T00:38:50;3.91;78.14
79024;DHT22;70306;44.764;37.688;2024-03-08T00:39:55;3.90;78.57
79024;DHT22;70306;44.764;37.688;2024-03-08T00:40:57;3.93;78.92
79024;DHT22;70306;44.764;37.688;2024-03-08T00:41:59;3.89;78.45
79024;DHT22;70306;44.764;37.688;2024-03-08T00:43:01;3.81;78.99
79024;DHT22;70306;44.764;37.688;2024-03-08T00:44:05;3.77;79.31
79024;DHT22;70306;44.764;37.688;2024-03-08T00:45:08;3.69;78.90
79024;DHT22;70306;44.764;37.688;2024-03-08T00:46:11;3.66;79.23
79024;DHT22;70306;44.764;37.688;2024-03-08T00:47:13;3.62;79.71
79024;DHT22;70306;44.764;37.688;2024-03-08T00:48:16;3.62;79.57
79024;DHT22;70306;44.764;37.688;2024-03-08T00:49:18;3.60;79.50
79024;DHT22;70306;44.764;37.688;2024-03-08T00:50:20;3.59;79.96
79024;DHT22;70306;44.764;37.688;2024-03-08T00:51:22;3.58;79.89
79024;DHT22;70306;44.764;37.688;2024-03-08T00:52:24;3.55;79.77
79024;DHT22;70306;44.764;37.688;2024-03-08T00:53:26;3.55;80.06
79024;DHT22;70306;44.764;37.688;2024-03-08T00:54:28;3.52;80.11
79024;DHT22;70306;44.764;37.688;2024-03-08T00:55:32;3.55;80.27
79024;DHT22;70306;44.764;37.688;2024-03-08T00:56:34;3.60;80.13
79024;DHT22;70306;44.764;37.688;2024-03-08T00:57:37;3.56;79.95
79024;DHT22;70306;44.764;37.688;2024-03-08T00:58:40;3.51;80.23
79024;DHT22;70306;44.764;37.688;2024-03-08T00:59:42;3.49;80.36
79024;DHT22;70306;44.764;37.688;2024-03-08T01:00:44;3.48;80.63
79024;DHT22;70306;44.764;37.688;2024-03-08T01:01:46;3.46;80.65
79024;DHT22;70306;44.764;37.688;2024-03-08T01:02:48;3.46;80.91
79024;DHT22;70306;44.764;37.688;2024-03-08T01:03:50;3.49;80.97
79024;DHT22;70306;44.764;37.688;2024-03-08T01:04:52;3.49;80.97
79024;DHT22;70306;44.764;37.688;2024-03-08T01:05:54;3.45;80.75
79024;DHT22;70306;44.764;37.688;2024-03-08T01:06:57;3.45;80.72
79024;DHT22;70306;44.764;37.688;2024-03-08T01:07:59;3.46;81.10
79024;DHT22;70306;44.764;37.688;2024-03-08T01:09:01;3.49;81.12
79024;DHT22;70306;44.764;37.688;2024-03-08T01:10:04;3.51;81.09
79024;DHT22;70306;44.764;37.688;2024-03-08T01:11:13;3.54;80.67
79024;DHT22;70306;44.764;37.688;2024-03-08T01:12:15;3.52;80.96
79024;DHT22;70306;44.764;37.688;2024-03-08T01:13:17;3.56;81.03
79024;DHT22;70306;44.764;37.688;2024-03-08T01:14:21;3.59;80.82
79024;DHT22;70306;44.764;37.688;2024-03-08T01:15:27;3.52;80.25
79024;DHT22;70306;44.764;37.688;2024-03-08T01:16:29;3.48;80.38
79024;DHT22;70306;44.764;37.688;2024-03-08T01:17:31;3.39;80.47
79024;DHT22;70306;44.764;37.688;2024-03-08T01:18:33;3.35;80.91
79024;DHT22;70306;44.764;37.688;2024-03-08T01:19:35;3.31;81.22
79024;DHT22;70306;44.764;37.688;2024-03-08T01:20:37;3.24;81.39
79024;DHT22;70306;44.764;37.688;2024-03-08T01:21:42;3.21;81.75
79024;DHT22;70306;44.764;37.688;2024-03-08T01:22:44;3.21;82.04
79024;DHT22;70306;44.764;37.688;2024-03-08T01:23:46;3.25;81.85
79024;DHT22;70306;44.764;37.688;2024-03-08T01:24:48;3.22;81.51
79024;DHT22;70306;44.764;37.688;2024-03-08T01:25:50;3.14;81.59
79024;DHT22;70306;44.764;37.688;2024-03-08T01:26:58;3.12;82.11
79024;DHT22;70306;44.764;37.688;2024-03-08T01:28:01;3.11;82.18
79024;DHT22;70306;44.764;37.688;2024-03-08T01:29:04;3.12;82.37
79024;DHT22;70306;44.764;37.688;2024-03-08T01:30:06;3.11;82.29
79024;DHT22;70306;44.764;37.688;2024-03-08T01:31:11;3.07;82.12
79024;DHT22;70306;44.764;37.688;2024-03-08T01:32:14;3.03;82.48
79024;DHT22;70306;44.764;37.688;2024-03-08T01:33:16;3.00;82.42
79024;DHT22;70306;44.764;37.688;2024-03-08T01:34:18;3.00;82.56
79024;DHT22;70306;44.764;37.688;2024-03-08T01:35:20;3.03;82.68
79024;DHT22;70306;44.764;37.688;2024-03-08T01:36:24;2.99;82.64
79024;DHT22;70306;44.764;37.688;2024-03-08T01:37:26;2.99;82.77
79024;DHT22;70306;44.764;37.688;2024-03-08T01:38:28;2.99;82.63
79024;DHT22;70306;44.764;37.688;2024-03-08T01:39:30;2.99;82.98
79024;DHT22;70306;44.764;37.688;2024-03-08T01:40:34;3.01;83.02
79024;DHT22;70306;44.764;37.688;2024-03-08T01:41:36;3.00;82.86
79024;DHT22;70306;44.764;37.688;2024-03-08T01:42:39;2.99;82.67
79024;DHT22;70306;44.764;37.688;2024-03-08T01:43:41;2.97;83.02
79024;DHT22;70306;44.764;37.688;2024-03-08T01:44:43;2.94;82.77
79024;DHT22;70306;44.764;37.688;2024-03-08T01:45:46;2.93;83.03
79024;DHT22;70306;44.764;37.688;2024-03-08T01:46:49;2.93;83.02
79024;DHT22;70306;44.764;37.688;2024-03-08T01:47:52;2.96;82.99
79024;DHT22;70306;44.764;37.688;2024-03-08T01:48:55;2.97;83.16
79024;DHT22;70306;44.764;37.688;2024-03-08T01:49:59;2.96;83.10
79024;DHT22;70306;44.764;37.688;2024-03-08T01:51:03;2.94;82.99
79024;DHT22;70306;44.764;37.688;2024-03-08T01:52:06;2.96;83.27
79024;DHT22;70306;44.764;37.688;2024-03-08T01:53:08;2.97;83.34
79024;DHT22;70306;44.764;37.688;2024-03-08T01:54:11;2.97;83.38
79024;DHT22;70306;44.764;37.688;2024-03-08T01:55:15;3.00;83.31
79024;DHT22;70306;44.764;37.688;2024-03-08T01:56:18;2.94;83.01
79024;DHT22;70306;44.764;37.688;2024-03-08T01:57:21;2.94;83.07
79024;DHT22;70306;44.764;37.688;2024-03-08T01:58:24;2.93;83.23
79024;DHT22;70306;44.764;37.688;2024-03-08T01:59:27;2.99;83.42
79024;DHT22;70306;44.764;37.688;2024-03-08T02:00:30;2.99;83.14
79024;DHT22;70306;44.764;37.688;2024-03-08T02:01:33;3.00;83.19
79024;DHT22;70306;44.764;37.688;2024-03-08T02:02:37;3.01;83.01
79024;DHT22;70306;44.764;37.688;2024-03-08T02:03:39;3.03;83.13
79024;DHT22;70306;44.764;37.688;2024-03-08T02:04:41;3.05;83.14
79024;DHT22;70306;44.764;37.688;2024-03-08T02:05:44;3.03;83.23
79024;DHT22;70306;44.764;37.688;2024-03-08T02:06:46;3.04;83.38
79024;DHT22;70306;44.764;37.688;2024-03-08T02:07:49;3.05;83.10
79024;DHT22;70306;44.764;37.688;2024-03-08T02:08:51;3.05;83.12
79024;DHT22;70306;44.764;37.688;2024-03-08T02:09:54;3.07;83.31
79024;DHT22;70306;44.764;37.688;2024-03-08T02:10:56;3.05;83.51
79024;DHT22;70306;44.764;37.688;2024-03-08T02:11:58;3.08;83.35
79024;DHT22;70306;44.764;37.688;2024-03-08T02:13:05;3.07;83.24
79024;DHT22;70306;44.764;37.688;2024-03-08T02:14:08;3.05;83.14
79024;DHT22;70306;44.764;37.688;2024-03-08T02:15:11;3.07;83.35
79024;DHT22;70306;44.764;37.688;2024-03-08T02:16:20;3.07;83.45
79024;DHT22;70306;44.764;37.688;2024-03-08T02:17:22;3.05;83.24
79024;DHT22;70306;44.764;37.688;2024-03-08T02:18:25;3.01;83.36
79024;DHT22;70306;44.764;37.688;2024-03-08T02:19:27;2.99;83.55
79024;DHT22;70306;44.764;37.688;2024-03-08T02:20:29;2.97;83.58
79024;DHT22;70306;44.764;37.688;2024-03-08T02:21:31;2.99;83.61
79024;DHT22;70306;44.764;37.688;2024-03-08T02:22:33;2.97;83.66
79024;DHT22;70306;44.764;37.688;2024-03-08T02:23:36;2.94;83.92
79024;DHT22;70306;44.764;37.688;2024-03-08T02:24:39;2.99;84.14
79024;DHT22;70306;44.764;37.688;2024-03-08T02:25:41;2.97;83.97
79024;DHT22;70306;44.764;37.688;2024-03-08T02:26:45;2.92;84.07
79024;DHT22;70306;44.764;37.688;2024-03-08T02:27:48;2.92;84.18
79024;DHT22;70306;44.764;37.688;2024-03-08T02:28:50;2.89;84.47
79024;DHT22;70306;44.764;37.688;2024-03-08T02:29:55;2.94;84.52
79024;DHT22;70306;44.764;37.688;2024-03-08T02:31:00;2.94;84.56
79024;DHT22;70306;44.764;37.688;2024-03-08T02:32:02;2.99;84.76
79024;DHT22;70306;44.764;37.688;2024-03-08T02:33:05;3.00;84.55
79024;DHT22;70306;44.764;37.688;2024-03-08T02:34:07;3.01;84.66
79024;DHT22;70306;44.764;37.688;2024-03-08T02:35:09;3.04;84.47
79024;DHT22;70306;44.764;37.688;2024-03-08T02:36:11;3.01;84.18
79024;DHT22;70306;44.764;37.688;2024-03-08T02:37:14;2.99;84.39
79024;DHT22;70306;44.764;37.688;2024-03-08T02:38:20;3.03;84.49
79024;DHT22;70306;44.764;37.688;2024-03-08T02:39:23;2.97;84.29
79024;DHT22;70306;44.764;37.688;2024-03-08T02:40:25;2.99;84.49
79024;DHT22;70306;44.764;37.688;2024-03-08T02:41:27;2.97;84.39
79024;DHT22;70306;44.764;37.688;2024-03-08T02:42:29;2.97;84.32
79024;DHT22;70306;44.764;37.688;2024-03-08T02:43:33;2.99;84.46
79024;DHT22;70306;44.764;37.688;2024-03-08T02:44:36;3.04;84.64
79024;DHT22;70306;44.764;37.688;2024-03-08T02:45:39;3.08;84.42
79024;DHT22;70306;44.764;37.688;2024-03-08T02:46:41;3.05;84.10
79024;DHT22;70306;44.764;37.688;2024-03-08T02:47:43;3.03;84.01
79024;DHT22;70306;44.764;37.688;2024-03-08T02:48:45;3.01;84.39
79024;DHT22;70306;44.764;37.688;2024-03-08T02:49:48;3.04;84.46
79024;DHT22;70306;44.764;37.688;2024-03-08T02:50:52;3.07;84.45
79024;DHT22;70306;44.764;37.688;2024-03-08T02:51:54;3.10;84.43
79024;DHT22;70306;44.764;37.688;2024-03-08T02:52:58;3.08;84.24
79024;DHT22;70306;44.764;37.688;2024-03-08T02:54:00;3.10;84.32
79024;DHT22;70306;44.764;37.688;2024-03-08T02:55:03;3.08;84.22
79024;DHT22;70306;44.764;37.688;2024-03-08T02:56:07;3.05;84.15
79024;DHT22;70306;44.764;37.688;2024-03-08T02:57:11;3.07;84.53
79024;DHT22;70306;44.764;37.688;2024-03-08T02:58:13;3.07;84.55
79024;DHT22;70306;44.764;37.688;2024-03-08T02:59:16;3.05;84.31
79024;DHT22;70306;44.764;37.688;2024-03-08T03:00:19;3.00;84.43
79024;DHT22;70306;44.764;37.688;2024-03-08T03:01:21;2.99;84.65
79024;DHT22;70306;44.764;37.688;2024-03-08T03:02:24;3.01;84.89
79024;DHT22;70306;44.764;37.688;2024-03-08T03:03:26;3.00;84.91
79024;DHT22;70306;44.764;37.688;2024-03-08T03:04:28;3.04;85.09
79024;DHT22;70306;44.764;37.688;2024-03-08T03:05:30;3.03;84.77
79024;DHT22;70306;44.764;37.688;2024-03-08T03:06:32;3.04;84.85
79024;DHT22;70306;44.764;37.688;2024-03-08T03:07:35;3.05;84.83
79024;DHT22;70306;44.764;37.688;2024-03-08T03:08:37;3.10;84.98
79024;DHT22;70306;44.764;37.688;2024-03-08T03:09:40;3.07;84.63
79024;DHT22;70306;44.764;37.688;2024-03-08T03:10:42;3.07;84.57
79024;DHT22;70306;44.764;37.688;2024-03-08T03:12:08;3.04;84.60
79024;DHT22;70306;44.764;37.688;2024-03-08T03:13:24;3.05;84.73
79024;DHT22;70306;44.764;37.688;2024-03-08T03:14:26;3.03;84.61
79024;DHT22;70306;44.764;37.688;2024-03-08T03:15:29;2.99;84.79
79024;DHT22;70306;44.764;37.688;2024-03-08T03:16:31;3.00;84.94
79024;DHT22;70306;44.764;37.688;2024-03-08T03:17:33;3.05;84.81
79024;DHT22;70306;44.764;37.688;2024-03-08T03:18:35;3.04;84.87
79024;DHT22;70306;44.764;37.688;2024-03-08T03:19:40;3.03;84.80
79024;DHT22;70306;44.764;37.688;2024-03-08T03:20:44;3.07;85.04
79024;DHT22;70306;44.764;37.688;2024-03-08T03:21:46;3.07;84.79
79024;DHT22;70306;44.764;37.688;2024-03-08T03:22:49;3.05;84.63
79024;DHT22;70306;44.764;37.688;2024-03-08T03:23:54;3.05;84.63
79024;DHT22;70306;44.764;37.688;2024-03-08T03:24:56;3.07;84.83
79024;DHT22;70306;44.764;37.688;2024-03-08T03:26:01;3.08;84.91
79024;DHT22;70306;44.764;37.688;2024-03-08T03:27:04;3.11;84.90
79024;DHT22;70306;44.764;37.688;2024-03-08T03:28:12;3.14;85.05
79024;DHT22;70306;44.764;37.688;2024-03-08T03:29:19;3.14;84.67
79024;DHT22;70306;44.764;37.688;2024-03-08T03:30:23;3.11;84.79
79024;DHT22;70306;44.764;37.688;2024-03-08T03:31:25;3.10;84.69
79024;DHT22;70306;44.764;37.688;2024-03-08T03:32:27;3.10;84.59
79024;DHT22;70306;44.764;37.688;2024-03-08T03:33:30;3.10;84.86
79024;DHT22;70306;44.764;37.688;2024-03-08T03:34:32;3.14;84.96
79024;DHT22;70306;44.764;37.688;2024-03-08T03:35:35;3.14;84.70
79024;DHT22;70306;44.764;37.688;2024-03-08T03:36:37;3.14;84.55
79024;DHT22;70306;44.764;37.688;2024-03-08T03:37:44;3.12;84.60
79024;DHT22;70306;44.764;37.688;2024-03-08T03:38:52;3.12;84.74
79024;DHT22;70306;44.764;37.688;2024-03-08T03:40:06;3.15;84.58
79024;DHT22;70306;44.764;37.688;2024-03-08T03:41:12;3.12;84.55
79024;DHT22;70306;44.764;37.688;2024-03-08T03:42:16;3.10;84.60
79024;DHT22;70306;44.764;37.688;2024-03-08T03:43:18;3.10;84.76
79024;DHT22;70306;44.764;37.688;2024-03-08T03:44:20;3.11;84.74
79024;DHT22;70306;44.764;37.688;2024-03-08T03:45:24;3.11;84.70
79024;DHT22;70306;44.764;37.688;2024-03-08T03:46:26;3.11;84.56
79024;DHT22;70306;44.764;37.688;2024-03-08T03:47:29;3.04;84.48
79024;DHT22;70306;44.764;37.688;2024-03-08T03:48:31;3.07;84.85
79024;DHT22;70306;44.764;37.688;2024-03-08T03:49:33;3.08;84.90
79024;DHT22;70306;44.764;37.688;2024-03-08T03:50:35;3.11;85.02
79024;DHT22;70306;44.764;37.688;2024-03-08T03:51:38;3.08;84.79
79024;DHT22;70306;44.764;37.688;2024-03-08T03:52:40;3.14;84.90
79024;DHT22;70306;44.764;37.688;2024-03-08T03:53:43;3.15;84.91
79024;DHT22;70306;44.764;37.688;2024-03-08T03:54:46;3.20;84.94
79024;DHT22;70306;44.764;37.688;2024-03-08T03:55:48;3.21;84.59
79024;DHT22;70306;44.764;37.688;2024-03-08T03:56:50;3.20;84.24
79024;DHT22;70306;44.764;37.688;2024-03-08T03:57:55;3.22;84.42
79024;DHT22;70306;44.764;37.688;2024-03-08T03:58:57;3.22;84.52
79024;DHT22;70306;44.764;37.688;2024-03-08T03:59:59;3.31;84.54
79024;DHT22;70306;44.764;37.688;2024-03-08T04:01:01;3.29;84.16
79024;DHT22;70306;44.764;37.688;2024-03-08T04:02:06;3.29;84.04
79024;DHT22;70306;44.764;37.688;2024-03-08T04:03:08;3.28;83.84
79024;DHT22;70306;44.764;37.688;2024-03-08T04:04:10;3.29;83.90
79024;DHT22;70306;44.764;37.688;2024-03-08T04:05:14;3.32;84.03
79024;DHT22;70306;44.764;37.688;2024-03-08T04:06:16;3.38;83.96
79024;DHT22;70306;44.764;37.688;2024-03-08T04:07:18;3.39;83.67
79024;DHT22;70306;44.764;37.688;2024-03-08T04:08:20;3.38;83.22
79024;DHT22;70306;44.764;37.688;2024-03-08T04:09:22;3.38;83.20
79024;DHT22;70306;44.764;37.688;2024-03-08T04:10:25;3.38;83.33
79024;DHT22;70306;44.764;37.688;2024-03-08T04:11:27;3.42;83.45
79024;DHT22;70306;44.764;37.688;2024-03-08T04:12:29;3.46;83.30
79024;DHT22;70306;44.764;37.688;2024-03-08T04:13:32;3.45;83.03
79024;DHT22;70306;44.764;37.688;2024-03-08T04:14:34;3.46;82.78
79024;DHT22;70306;44.764;37.688;2024-03-08T04:15:37;3.46;82.80
79024;DHT22;70306;44.764;37.688;2024-03-08T04:16:39;3.43;82.44
79024;DHT22;70306;44.764;37.688;2024-03-08T04:17:41;3.42;82.63
79024;DHT22;70306;44.764;37.688;2024-03-08T04:18:44;3.42;82.78
79024;DHT22;70306;44.764;37.688;2024-03-08T04:19:46;3.42;82.37
79024;DHT22;70306;44.764;37.688;2024-03-08T04:21:16;3.38;82.56
79024;DHT22;70306;44.764;37.688;2024-03-08T04:22:20;3.43;83.05
79024;DHT22;70306;44.764;37.688;2024-03-08T04:23:22;3.45;82.73
79024;DHT22;70306;44.764;37.688;2024-03-08T04:24:24;3.45;82.29
79024;DHT22;70306;44.764;37.688;2024-03-08T04:25:27;3.45;82.36
79024;DHT22;70306;44.764;37.688;2024-03-08T04:26:29;3.48;82.32
79024;DHT22;70306;44.764;37.688;2024-03-08T04:27:33;3.48;82.02
79024;DHT22;70306;44.764;37.688;2024-03-08T04:28:35;3.43;81.76
79024;DHT22;70306;44.764;37.688;2024-03-08T04:29:38;3.45;81.81
79024;DHT22;70306;44.764;37.688;2024-03-08T04:30:41;3.36;81.69
79024;DHT22;70306;44.764;37.688;2024-03-08T04:31:43;3.36;82.15
79024;DHT22;70306;44.764;37.688;2024-03-08T04:32:45;3.39;82.36
79024;DHT22;70306;44.764;37.688;2024-03-08T04:33:47;3.43;82.57
79024;DHT22;70306;44.764;37.688;2024-03-08T04:34:50;3.38;82.01
79024;DHT22;70306;44.764;37.688;2024-03-08T04:35:52;3.31;82.02
79024;DHT22;70306;44.764;37.688;2024-03-08T04:36:57;3.27;82.26
79024;DHT22;70306;44.764;37.688;2024-03-08T04:37:59;3.27;82.79
79024;DHT22;70306;44.764;37.688;2024-03-08T04:39:02;3.28;82.49
79024;DHT22;70306;44.764;37.688;2024-03-08T04:40:05;3.22;82.41
79024;DHT22;70306;44.764;37.688;2024-03-08T04:41:08;3.20;82.50
79024;DHT22;70306;44.764;37.688;2024-03-08T04:42:11;3.22;82.57
79024;DHT22;70306;44.764;37.688;2024-03-08T04:43:14;3.17;82.36
79024;DHT22;70306;44.764;37.688;2024-03-08T04:44:16;3.14;82.39
79024;DHT22;70306;44.764;37.688;2024-03-08T04:45:19;3.08;82.58
79024;DHT22;70306;44.764;37.688;2024-03-08T04:46:21;3.07;83.01
79024;DHT22;70306;44.764;37.688;2024-03-08T04:47:23;3.10;82.93
79024;DHT22;70306;44.764;37.688;2024-03-08T04:48:26;3.07;82.76
79024;DHT22;70306;44.764;37.688;2024-03-08T04:49:28;3.03;82.98
79024;DHT22;70306;44.764;37.688;2024-03-08T04:50:30;2.99;83.00
79024;DHT22;70306;44.764;37.688;2024-03-08T04:51:33;2.93;83.09
79024;DHT22;70306;44.764;37.688;2024-03-08T04:52:35;2.86;83.36
79024;DHT22;70306;44.764;37.688;2024-03-08T04:53:38;2.84;83.56
79024;DHT22;70306;44.764;37.688;2024-03-08T04:54:40;2.86;83.80
79024;DHT22;70306;44.764;37.688;2024-03-08T04:55:42;2.83;83.78
79024;DHT22;70306;44.764;37.688;2024-03-08T04:56:44;2.80;83.79
79024;DHT22;70306;44.764;37.688;2024-03-08T04:57:48;2.77;83.83
79024;DHT22;70306;44.764;37.688;2024-03-08T04:58:51;2.77;84.05
79024;DHT22;70306;44.764;37.688;2024-03-08T04:59:54;2.73;83.92
79024;DHT22;70306;44.764;37.688;2024-03-08T05:00:56;2.77;84.31
79024;DHT22;70306;44.764;37.688;2024-03-08T05:01:58;2.84;84.52
79024;DHT22;70306;44.764;37.688;2024-03-08T05:03:03;2.93;84.64
79024;DHT22;70306;44.764;37.688;2024-03-08T05:04:06;2.90;83.64
79024;DHT22;70306;44.764;37.688;2024-03-08T05:05:08;2.93;83.73
79024;DHT22;70306;44.764;37.688;2024-03-08T05:06:14;2.94;83.91
79024;DHT22;70306;44.764;37.688;2024-03-08T05:07:16;2.99;83.78
79024;DHT22;70306;44.764;37.688;2024-03-08T05:08:18;3.01;83.82
79024;DHT22;70306;44.764;37.688;2024-03-08T05:09:21;2.96;83.24
79024;DHT22;70306;44.764;37.688;2024-03-08T05:10:24;2.89;83.27
79024;DHT22;70306;44.764;37.688;2024-03-08T05:11:26;2.87;83.55
79024;DHT22;70306;44.764;37.688;2024-03-08T05:12:28;2.84;83.40
79024;DHT22;70306;44.764;37.688;2024-03-08T05:13:30;2.79;83.52
79024;DHT22;70306;44.764;37.688;2024-03-08T05:14:33;2.76;83.74
79024;DHT22;70306;44.764;37.688;2024-03-08T05:15:37;2.79;83.91
79024;DHT22;70306;44.764;37.688;2024-03-08T05:16:43;2.77;83.94
79024;DHT22;70306;44.764;37.688;2024-03-08T05:17:49;2.79;84.11
79024;DHT22;70306;44.764;37.688;2024-03-08T05:18:51;2.79;83.83
79024;DHT22;70306;44.764;37.688;2024-03-08T05:19:54;2.79;83.76
79024;DHT22;70306;44.764;37.688;2024-03-08T05:20:56;2.77;83.72
79024;DHT22;70306;44.764;37.688;2024-03-08T05:21:58;2.76;84.04
79024;DHT22;70306;44.764;37.688;2024-03-08T05:23:01;2.83;84.10
79024;DHT22;70306;44.764;37.688;2024-03-08T05:24:03;2.82;84.06
79024;DHT22;70306;44.764;37.688;2024-03-08T05:25:07;2.86;83.73
79024;DHT22;70306;44.764;37.688;2024-03-08T05:26:12;2.86;83.69
79024;DHT22;70306;44.764;37.688;2024-03-08T05:27:14;2.83;83.62
79024;DHT22;70306;44.764;37.688;2024-03-08T05:28:17;2.80;83.76
79024;DHT22;70306;44.764;37.688;2024-03-08T05:29:19;2.79;84.11
79024;DHT22;70306;44.764;37.688;2024-03-08T05:30:22;2.83;84.13
79024;DHT22;70306;44.764;37.688;2024-03-08T05:31:47;2.83;83.88
79024;DHT22;70306;44.764;37.688;2024-03-08T05:32:50;2.80;83.77
79024;DHT22;70306;44.764;37.688;2024-03-08T05:33:52;2.82;83.97
79024;DHT22;70306;44.764;37.688;2024-03-08T05:34:55;2.82;83.93
79024;DHT22;70306;44.764;37.688;2024-03-08T05:35:57;2.79;83.75
79024;DHT22;70306;44.764;37.688;2024-03-08T05:37:01;2.79;84.13
79024;DHT22;70306;44.764;37.688;2024-03-08T05:38:03;2.84;84.19
79024;DHT22;70306;44.764;37.688;2024-03-08T05:39:05;2.92;83.97
79024;DHT22;70306;44.764;37.688;2024-03-08T05:40:08;2.97;83.76
79024;DHT22;70306;44.764;37.688;2024-03-08T05:41:11;2.97;83.60
79024;DHT22;70306;44.764;37.688;2024-03-08T05:42:16;2.97;83.84
79024;DHT22;70306;44.764;37.688;2024-03-08T05:43:18;2.96;83.47
79024;DHT22;70306;44.764;37.688;2024-03-08T05:44:21;3.01;83.71
79024;DHT22;70306;44.764;37.688;2024-03-08T05:45:24;3.04;83.46
79024;DHT22;70306;44.764;37.688;2024-03-08T05:46:26;3.04;83.24
79024;DHT22;70306;44.764;37.688;2024-03-08T05:47:28;3.08;83.16
79024;DHT22;70306;44.764;37.688;2024-03-08T05:48:30;3.05;83.18
79024;DHT22;70306;44.764;37.688;2024-03-08T05:49:35;3.08;83.31
79024;DHT22;70306;44.764;37.688;2024-03-08T05:50:38;3.05;83.13
79024;DHT22;70306;44.764;37.688;2024-03-08T05:51:41;3.05;83.12
79024;DHT22;70306;44.764;37.688;2024-03-08T05:52:43;3.08;83.06
79024;DHT22;70306;44.764;37.688;2024-03-08T05:53:45;3.10;82.91
79024;DHT22;70306;44.764;37.688;2024-03-08T05:54:47;3.08;82.68
79024;DHT22;70306;44.764;37.688;2024-03-08T05:55:49;3.10;83.24
79024;DHT22;70306;44.764;37.688;2024-03-08T05:56:51;3.18;83.02
79024;DHT22;70306;44.764;37.688;2024-03-08T05:57:54;3.20;82.94
79024;DHT22;70306;44.764;37.688;2024-03-08T05:58:58;3.27;82.90
79024;DHT22;70306;44.764;37.688;2024-03-08T06:00:00;3.18;82.34
79024;DHT22;70306;44.764;37.688;2024-03-08T06:01:02;3.24;82.60
79024;DHT22;70306;44.764;37.688;2024-03-08T06:02:09;3.20;82.30
79024;DHT22;70306;44.764;37.688;2024-03-08T06:03:11;3.22;82.55
79024;DHT22;70306;44.764;37.688;2024-03-08T06:04:13;3.28;82.63
79024;DHT22;70306;44.764;37.688;2024-03-08T06:05:16;3.29;82.60
79024;DHT22;70306;44.764;37.688;2024-03-08T06:06:18;3.32;82.24
79024;DHT22;70306;44.764;37.688;2024-03-08T06:07:20;3.38;82.65
79024;DHT22;70306;44.764;37.688;2024-03-08T06:08:22;3.43;82.29
79024;DHT22;70306;44.764;37.688;2024-03-08T06:09:25;3.46;82.26
79024;DHT22;70306;44.764;37.688;2024-03-08T06:10:27;3.51;81.86
79024;DHT22;70306;44.764;37.688;2024-03-08T06:11:29;3.52;81.78
79024;DHT22;70306;44.764;37.688;2024-03-08T06:12:33;3.49;81.44
79024;DHT22;70306;44.764;37.688;2024-03-08T06:13:41;3.49;81.31
79024;DHT22;70306;44.764;37.688;2024-03-08T06:14:44;3.46;81.43
79024;DHT22;70306;44.764;37.688;2024-03-08T06:15:46;3.54;81.66
79024;DHT22;70306;44.764;37.688;2024-03-08T06:16:48;3.55;81.60
79024;DHT22;70306;44.764;37.688;2024-03-08T06:17:51;3.59;81.72
79024;DHT22;70306;44.764;37.688;2024-03-08T06:18:57;3.58;81.08
79024;DHT22;70306;44.764;37.688;2024-03-08T06:19:59;3.63;81.51
79024;DHT22;70306;44.764;37.688;2024-03-08T06:21:01;3.52;80.34
79024;DHT22;70306;44.764;37.688;2024-03-08T06:22:03;3.55;81.40
79024;DHT22;70306;44.764;37.688;2024-03-08T06:23:07;3.56;81.25
79024;DHT22;70306;44.764;37.688;2024-03-08T06:24:10;3.59;81.20
79024;DHT22;70306;44.764;37.688;2024-03-08T06:25:13;3.62;81.47
79024;DHT22;70306;44.764;37.688;2024-03-08T06:26:18;3.63;80.99
79024;DHT22;70306;44.764;37.688;2024-03-08T06:27:20;3.63;81.20
79024;DHT22;70306;44.764;37.688;2024-03-08T06:28:22;3.66;81.02
79024;DHT22;70306;44.764;37.688;2024-03-08T06:29:25;3.74;81.95
79024;DHT22;70306;44.764;37.688;2024-03-08T06:30:27;3.81;81.38
79024;DHT22;70306;44.764;37.688;2024-03-08T06:31:30;3.84;81.06
79024;DHT22;70306;44.764;37.688;2024-03-08T06:32:32;3.84;80.36
79024;DHT22;70306;44.764;37.688;2024-03-08T06:33:37;3.81;80.45
79024;DHT22;70306;44.764;37.688;2024-03-08T06:34:39;3.77;80.38
79024;DHT22;70306;44.764;37.688;2024-03-08T06:35:41;3.79;80.11
79024;DHT22;70306;44.764;37.688;2024-03-08T06:36:43;3.79;80.43
79024;DHT22;70306;44.764;37.688;2024-03-08T06:37:45;3.80;80.27